Saint Louis, Missouri
Traffic Map
Current Weather Conditions
Saint Louis, Missouri
Overcast
Overcast

Feels Like: 2°
Wind Chill: Ceiling: 1800
Heat Index: Visibility: 10mi
Dew Point: -2° Wind: 3mph
Humidity: 78% Direction: 60° (ENE)
Pressure: 30.27in Gusts: 0mph
Raw Report DataKCPS 190053Z 06003KT 10SM OVC018 02/M02 A3027 RMK AO2 SLP254 T00171017
Traffic Incident Summary
Active as of:
Severity:
Category:
InformationThere was an issue retrieving the traffic information for this location. Please try a different location or try again shortly.
Advertisements
Track Severe Weather on mobile